sensor_id;sensor_type;location;lat;lon;timestamp;pressure;altitude;pressure_sealevel;temperature;humidity
50636;BME280;36598;46.054;11.130;2023-04-02T04:02:51;98408.66;;;9.65;52.24
50636;BME280;36598;46.054;11.130;2023-04-02T04:05:28;98407.28;;;9.73;51.96
50636;BME280;36598;46.054;11.130;2023-04-02T04:08:05;98415.63;;;10.06;51.32
50636;BME280;36598;46.054;11.130;2023-04-02T04:10:32;98421.72;;;9.81;51.79
50636;BME280;36598;46.054;11.130;2023-04-02T04:13:04;98423.91;;;10.06;50.86
50636;BME280;36598;46.054;11.130;2023-04-02T04:17:58;98435.63;;;9.77;51.42
50636;BME280;36598;46.054;11.130;2023-04-02T04:20:31;98438.41;;;9.93;51.53
50636;BME280;36598;46.054;11.130;2023-04-02T04:23:18;98437.88;;;9.82;51.28
50636;BME280;36598;46.054;11.130;2023-04-02T04:25:55;98443.25;;;9.89;50.68
50636;BME280;36598;46.054;11.130;2023-04-02T04:28:23;98448.16;;;9.82;51.19
50636;BME280;36598;46.054;11.130;2023-04-02T04:33:26;98452.72;;;9.88;51.69
50636;BME280;36598;46.054;11.130;2023-04-02T04:35:55;98459.34;;;9.74;51.41
50636;BME280;36598;46.054;11.130;2023-04-02T04:38:31;98463.84;;;9.85;51.84
50636;BME280;36598;46.054;11.130;2023-04-02T04:41:02;98464.53;;;9.72;51.19
50636;BME280;36598;46.054;11.130;2023-04-02T04:45:59;98473.09;;;9.78;51.47
50636;BME280;36598;46.054;11.130;2023-04-02T04:51:18;98474.31;;;9.93;50.81
50636;BME280;36598;46.054;11.130;2023-04-02T04:53:46;98480.72;;;9.90;51.20
50636;BME280;36598;46.054;11.130;2023-04-02T04:56:12;98482.47;;;10.00;51.79
50636;BME280;36598;46.054;11.130;2023-04-02T05:01:11;98486.88;;;9.98;50.98
50636;BME280;36598;46.054;11.130;2023-04-02T05:09:00;98491.47;;;10.04;50.62
50636;BME280;36598;46.054;11.130;2023-04-02T05:11:31;98501.94;;;10.13;50.58
50636;BME280;36598;46.054;11.130;2023-04-02T05:14:00;98506.22;;;9.98;50.22
50636;BME280;36598;46.054;11.130;2023-04-02T05:16:30;98501.09;;;10.16;50.18
50636;BME280;36598;46.054;11.130;2023-04-02T05:18:59;98500.56;;;10.21;50.01
50636;BME280;36598;46.054;11.130;2023-04-02T05:21:43;98503.06;;;10.16;50.69
50636;BME280;36598;46.054;11.130;2023-04-02T05:26:45;98508.69;;;9.92;50.92
50636;BME280;36598;46.054;11.130;2023-04-02T05:29:19;98508.28;;;9.54;51.29
50636;BME280;36598;46.054;11.130;2023-04-02T05:31:46;98503.59;;;9.91;51.55
50636;BME280;36598;46.054;11.130;2023-04-02T05:34:22;98502.97;;;9.83;51.37
50636;BME280;36598;46.054;11.130;2023-04-02T05:36:49;98512.03;;;9.84;51.61
50636;BME280;36598;46.054;11.130;2023-04-02T05:39:16;98511.22;;;9.47;51.85
50636;BME280;36598;46.054;11.130;2023-04-02T05:41:45;98520.81;;;9.39;51.75
50636;BME280;36598;46.054;11.130;2023-04-02T05:44:15;98515.81;;;9.73;51.78
50636;BME280;36598;46.054;11.130;2023-04-02T05:46:47;98521.66;;;9.75;51.10
50636;BME280;36598;46.054;11.130;2023-04-02T05:49:19;98530.31;;;9.77;51.18
50636;BME280;36598;46.054;11.130;2023-04-02T05:51:46;98528.28;;;9.82;50.93
50636;BME280;36598;46.054;11.130;2023-04-02T05:55:20;98525.72;;;9.71;50.74
50636;BME280;36598;46.054;11.130;2023-04-02T05:57:12;98528.41;;;9.74;51.36
50636;BME280;36598;46.054;11.130;2023-04-02T05:59:43;98535.06;;;9.97;50.96
50636;BME280;36598;46.054;11.130;2023-04-02T06:02:28;98538.28;;;10.32;49.97
50636;BME280;36598;46.054;11.130;2023-04-02T06:04:57;98534.34;;;10.33;49.46
50636;BME280;36598;46.054;11.130;2023-04-02T06:07:25;98539.00;;;10.16;49.88
50636;BME280;36598;46.054;11.130;2023-04-02T06:09:59;98539.88;;;10.33;49.63
50636;BME280;36598;46.054;11.130;2023-04-02T06:12:29;98542.38;;;10.23;49.36
50636;BME280;36598;46.054;11.130;2023-04-02T06:14:55;98539.88;;;10.33;48.74
50636;BME280;36598;46.054;11.130;2023-04-02T06:17:21;98539.09;;;10.32;49.14
50636;BME280;36598;46.054;11.130;2023-04-02T06:19:47;98547.50;;;10.45;48.10
50636;BME280;36598;46.054;11.130;2023-04-02T06:22:23;98543.22;;;10.40;48.21
50636;BME280;36598;46.054;11.130;2023-04-02T06:24:51;98547.81;;;10.47;48.19
50636;BME280;36598;46.054;11.130;2023-04-02T06:27:20;98543.19;;;10.76;47.23
50636;BME280;36598;46.054;11.130;2023-04-02T06:29:47;98542.03;;;12.10;44.52
50636;BME280;36598;46.054;11.130;2023-04-02T06:32:16;98538.28;;;13.97;40.86
50636;BME280;36598;46.054;11.130;2023-04-02T06:34:43;98543.28;;;15.14;37.80
50636;BME280;36598;46.054;11.130;2023-04-02T06:39:37;98546.63;;;17.61;33.19
50636;BME280;36598;46.054;11.130;2023-04-02T06:42:03;98547.13;;;16.78;33.71
50636;BME280;36598;46.054;11.130;2023-04-02T06:44:34;98544.53;;;16.99;33.70
50636;BME280;36598;46.054;11.130;2023-04-02T06:49:41;98553.56;;;18.19;32.02
50636;BME280;36598;46.054;11.130;2023-04-02T06:52:12;98551.53;;;19.14;30.60
50636;BME280;36598;46.054;11.130;2023-04-02T06:54:39;98554.44;;;20.07;29.18
50636;BME280;36598;46.054;11.130;2023-04-02T06:57:04;98559.38;;;20.44;28.23
50636;BME280;36598;46.054;11.130;2023-04-02T06:59:31;98562.44;;;22.40;26.20
50636;BME280;36598;46.054;11.130;2023-04-02T07:01:57;98559.31;;;23.16;24.77
50636;BME280;36598;46.054;11.130;2023-04-02T07:04:25;98563.59;;;21.94;26.18
50636;BME280;36598;46.054;11.130;2023-04-02T07:06:51;98566.03;;;22.46;25.56
50636;BME280;36598;46.054;11.130;2023-04-02T07:09:17;98558.91;;;24.83;22.81
50636;BME280;36598;46.054;11.130;2023-04-02T07:11:42;98568.97;;;23.49;23.88
50636;BME280;36598;46.054;11.130;2023-04-02T07:14:11;98573.31;;;23.50;24.61
50636;BME280;36598;46.054;11.130;2023-04-02T07:16:37;98570.56;;;23.39;24.13
50636;BME280;36598;46.054;11.130;2023-04-02T07:19:02;98580.72;;;21.31;27.10
50636;BME280;36598;46.054;11.130;2023-04-02T07:21:28;98584.59;;;20.12;28.61
50636;BME280;36598;46.054;11.130;2023-04-02T07:23:54;98583.75;;;19.04;30.09
50636;BME280;36598;46.054;11.130;2023-04-02T07:26:21;98583.63;;;19.13;30.18
50636;BME280;36598;46.054;11.130;2023-04-02T07:28:47;98595.00;;;17.28;33.21
50636;BME280;36598;46.054;11.130;2023-04-02T07:31:17;98585.63;;;17.41;32.44
50636;BME280;36598;46.054;11.130;2023-04-02T07:33:43;98588.03;;;16.48;34.94
50636;BME280;36598;46.054;11.130;2023-04-02T07:36:11;98588.78;;;17.82;32.43
50636;BME280;36598;46.054;11.130;2023-04-02T07:38:37;98592.56;;;17.69;32.07
50636;BME280;36598;46.054;11.130;2023-04-02T07:41:06;98588.06;;;17.48;33.12
50636;BME280;36598;46.054;11.130;2023-04-02T07:43:31;98585.25;;;17.48;33.46
50636;BME280;36598;46.054;11.130;2023-04-02T07:45:56;98583.19;;;17.96;32.26
50636;BME280;36598;46.054;11.130;2023-04-02T07:48:21;98586.94;;;20.40;28.97
50636;BME280;36598;46.054;11.130;2023-04-02T07:50:47;98578.81;;;21.11;27.61
50636;BME280;36598;46.054;11.130;2023-04-02T07:55:51;98579.72;;;25.16;22.86
50636;BME280;36598;46.054;11.130;2023-04-02T07:58:17;98579.38;;;25.93;21.56
50636;BME280;36598;46.054;11.130;2023-04-02T08:00:42;98574.53;;;26.77;20.08
50636;BME280;36598;46.054;11.130;2023-04-02T08:03:08;98574.06;;;28.66;18.99
50636;BME280;36598;46.054;11.130;2023-04-02T08:05:33;98576.34;;;29.09;18.10
50636;BME280;36598;46.054;11.130;2023-04-02T08:07:59;98571.75;;;28.43;18.88
50636;BME280;36598;46.054;11.130;2023-04-02T08:10:24;98571.72;;;28.09;19.89
50636;BME280;36598;46.054;11.130;2023-04-02T08:12:49;98570.47;;;27.31;19.56
50636;BME280;36598;46.054;11.130;2023-04-02T08:15:15;98573.41;;;28.39;18.83
50636;BME280;36598;46.054;11.130;2023-04-02T08:17:41;98578.34;;;27.64;19.79
50636;BME280;36598;46.054;11.130;2023-04-02T08:20:08;98576.59;;;27.35;21.15
50636;BME280;36598;46.054;11.130;2023-04-02T08:22:34;98573.28;;;30.67;16.98
50636;BME280;36598;46.054;11.130;2023-04-02T08:24:59;98576.19;;;28.52;18.33
50636;BME280;36598;46.054;11.130;2023-04-02T08:27:25;98574.34;;;29.54;17.73
50636;BME280;36598;46.054;11.130;2023-04-02T08:29:50;98578.22;;;30.75;16.49
50636;BME280;36598;46.054;11.130;2023-04-02T08:32:16;98576.97;;;29.80;18.27
50636;BME280;36598;46.054;11.130;2023-04-02T08:34:42;98565.59;;;31.62;15.89
50636;BME280;36598;46.054;11.130;2023-04-02T08:37:08;98570.44;;;30.08;16.77
50636;BME280;36598;46.054;11.130;2023-04-02T08:39:35;98556.66;;;29.84;18.09
50636;BME280;36598;46.054;11.130;2023-04-02T08:47:16;98574.44;;;27.54;19.05
50636;BME280;36598;46.054;11.130;2023-04-02T08:49:57;98565.25;;;26.44;19.98
50636;BME280;36598;46.054;11.130;2023-04-02T08:52:25;98564.91;;;27.65;18.65
50636;BME280;36598;46.054;11.130;2023-04-02T08:54:51;98558.97;;;26.51;19.96
50636;BME280;36598;46.054;11.130;2023-04-02T08:59:59;98549.69;;;28.57;17.86
50636;BME280;36598;46.054;11.130;2023-04-02T09:02:37;98559.19;;;29.02;17.66
50636;BME280;36598;46.054;11.130;2023-04-02T09:05:05;98554.16;;;29.15;17.22
50636;BME280;36598;46.054;11.130;2023-04-02T09:07:31;98550.91;;;29.68;16.81
50636;BME280;36598;46.054;11.130;2023-04-02T09:09:57;98552.53;;;27.89;18.03
50636;BME280;36598;46.054;11.130;2023-04-02T09:12:24;98542.97;;;28.34;17.80
50636;BME280;36598;46.054;11.130;2023-04-02T09:14:54;98548.63;;;28.47;18.34
50636;BME280;36598;46.054;11.130;2023-04-02T09:17:24;98543.13;;;26.88;18.73
50636;BME280;36598;46.054;11.130;2023-04-02T09:22:22;98541.78;;;26.89;19.11
50636;BME280;36598;46.054;11.130;2023-04-02T09:24:52;98541.50;;;27.72;18.57
50636;BME280;36598;46.054;11.130;2023-04-02T09:27:18;98545.88;;;27.07;18.41
50636;BME280;36598;46.054;11.130;2023-04-02T09:29:45;98544.28;;;25.96;19.32
50636;BME280;36598;46.054;11.130;2023-04-02T09:35:14;98557.25;;;22.10;22.97
50636;BME280;36598;46.054;11.130;2023-04-02T09:37:39;98547.03;;;22.18;22.90
50636;BME280;36598;46.054;11.130;2023-04-02T09:40:14;98538.28;;;22.11;23.14
50636;BME280;36598;46.054;11.130;2023-04-02T09:42:40;98532.91;;;23.08;21.99
50636;BME280;36598;46.054;11.130;2023-04-02T09:47:37;98545.50;;;22.90;21.93
50636;BME280;36598;46.054;11.130;2023-04-02T09:50:13;98548.81;;;21.45;23.50
50636;BME280;36598;46.054;11.130;2023-04-02T09:52:39;98538.00;;;23.85;21.59
50636;BME280;36598;46.054;11.130;2023-04-02T09:55:15;98540.47;;;24.05;21.14
50636;BME280;36598;46.054;11.130;2023-04-02T09:57:41;98534.94;;;24.90;19.96
50636;BME280;36598;46.054;11.130;2023-04-02T10:00:23;98534.44;;;25.59;20.01
50636;BME280;36598;46.054;11.130;2023-04-02T10:05:34;98521.88;;;26.30;17.76
50636;BME280;36598;46.054;11.130;2023-04-02T10:08:07;98528.78;;;25.59;18.11
50636;BME280;36598;46.054;11.130;2023-04-02T10:10:37;98520.66;;;25.69;18.00
50636;BME280;36598;46.054;11.130;2023-04-02T10:13:18;98512.94;;;26.07;17.69
50636;BME280;36598;46.054;11.130;2023-04-02T10:15:47;98513.16;;;25.53;18.55
50636;BME280;36598;46.054;11.130;2023-04-02T10:18:21;98522.59;;;26.17;17.86
50636;BME280;36598;46.054;11.130;2023-04-02T10:20:50;98514.59;;;26.67;17.21
50636;BME280;36598;46.054;11.130;2023-04-02T10:23:17;98507.19;;;26.64;16.94
50636;BME280;36598;46.054;11.130;2023-04-02T10:25:46;98507.06;;;26.37;16.71
50636;BME280;36598;46.054;11.130;2023-04-02T10:28:33;98501.47;;;24.94;17.78
50636;BME280;36598;46.054;11.130;2023-04-02T10:31:05;98508.78;;;25.33;17.78
50636;BME280;36598;46.054;11.130;2023-04-02T10:33:36;98503.78;;;23.47;19.33
50636;BME280;36598;46.054;11.130;2023-04-02T10:38:29;98504.91;;;24.21;18.19
50636;BME280;36598;46.054;11.130;2023-04-02T10:56:11;98495.22;;;24.77;21.80
50636;BME280;36598;46.054;11.130;2023-04-02T10:58:38;98486.03;;;25.19;17.85
50636;BME280;36598;46.054;11.130;2023-04-02T11:01:08;98482.97;;;24.38;16.42
50636;BME280;36598;46.054;11.130;2023-04-02T11:09:31;98479.69;;;24.29;18.31
50636;BME280;36598;46.054;11.130;2023-04-02T11:11:58;98471.50;;;24.19;17.00
50636;BME280;36598;46.054;11.130;2023-04-02T11:14:28;98475.81;;;23.96;17.13
50636;BME280;36598;46.054;11.130;2023-04-02T11:16:54;98468.84;;;24.33;17.20
50636;BME280;36598;46.054;11.130;2023-04-02T11:19:25;98459.06;;;24.34;18.09
50636;BME280;36598;46.054;11.130;2023-04-02T11:22:03;98465.72;;;24.42;18.02
50636;BME280;36598;46.054;11.130;2023-04-02T11:24:41;98464.78;;;24.58;16.66
50636;BME280;36598;46.054;11.130;2023-04-02T11:29:44;98460.91;;;23.48;17.29
50636;BME280;36598;46.054;11.130;2023-04-02T11:39:57;98461.75;;;23.32;17.94
50636;BME280;36598;46.054;11.130;2023-04-02T11:42:30;98466.56;;;22.12;18.65
50636;BME280;36598;46.054;11.130;2023-04-02T11:47:41;98468.50;;;23.12;19.15
50636;BME280;36598;46.054;11.130;2023-04-02T11:50:19;98478.81;;;23.04;18.53
50636;BME280;36598;46.054;11.130;2023-04-02T11:52:51;98475.06;;;23.43;17.43
50636;BME280;36598;46.054;11.130;2023-04-02T11:55:24;98483.75;;;22.70;17.74
50636;BME280;36598;46.054;11.130;2023-04-02T12:08:32;98502.72;;;19.47;29.44
50636;BME280;36598;46.054;11.130;2023-04-02T12:10:58;98483.63;;;19.51;29.98
50636;BME280;36598;46.054;11.130;2023-04-02T12:16:14;98501.59;;;18.98;30.09
50636;BME280;36598;46.054;11.130;2023-04-02T12:18:41;98498.59;;;18.51;30.71
50636;BME280;36598;46.054;11.130;2023-04-02T12:21:07;98532.22;;;18.37;31.25
50636;BME280;36598;46.054;11.130;2023-04-02T12:23:38;98523.53;;;18.35;31.15
50636;BME280;36598;46.054;11.130;2023-04-02T12:26:04;98517.09;;;18.93;30.70
50636;BME280;36598;46.054;11.130;2023-04-02T12:28:33;98519.16;;;18.63;30.69
50636;BME280;36598;46.054;11.130;2023-04-02T12:33:31;98519.09;;;18.28;32.01
50636;BME280;36598;46.054;11.130;2023-04-02T12:36:01;98514.84;;;18.33;31.51
50636;BME280;36598;46.054;11.130;2023-04-02T12:38:27;98524.38;;;18.85;30.81
50636;BME280;36598;46.054;11.130;2023-04-02T12:40:57;98518.78;;;19.26;29.98
50636;BME280;36598;46.054;11.130;2023-04-02T12:43:24;98536.75;;;18.79;30.58
50636;BME280;36598;46.054;11.130;2023-04-02T12:45:50;98521.19;;;18.77;30.98
50636;BME280;36598;46.054;11.130;2023-04-02T12:48:16;98521.22;;;19.59;29.80
50636;BME280;36598;46.054;11.130;2023-04-02T12:50:41;98521.22;;;19.18;30.28
50636;BME280;36598;46.054;11.130;2023-04-02T12:53:12;98525.72;;;19.31;30.01
50636;BME280;36598;46.054;11.130;2023-04-02T12:55:44;98524.34;;;19.41;29.61
50636;BME280;36598;46.054;11.130;2023-04-02T13:01:13;98521.22;;;19.18;29.80
50636;BME280;36598;46.054;11.130;2023-04-02T13:03:38;98518.72;;;19.20;29.72
50636;BME280;36598;46.054;11.130;2023-04-02T13:06:16;98514.72;;;19.68;29.47
50636;BME280;36598;46.054;11.130;2023-04-02T13:08:42;98514.09;;;19.79;29.25
50636;BME280;36598;46.054;11.130;2023-04-02T13:11:07;98503.84;;;20.33;28.83
50636;BME280;36598;46.054;11.130;2023-04-02T13:15:59;98499.63;;;19.65;29.59
50636;BME280;36598;46.054;11.130;2023-04-02T13:18:24;98506.66;;;18.94;30.21
50636;BME280;36598;46.054;11.130;2023-04-02T13:21:00;98502.56;;;18.95;30.49
50636;BME280;36598;46.054;11.130;2023-04-02T13:25:55;98503.97;;;19.05;29.82
50636;BME280;36598;46.054;11.130;2023-04-02T13:28:21;98501.75;;;19.09;29.85
50636;BME280;36598;46.054;11.130;2023-04-02T13:30:46;98499.44;;;19.08;29.29
50636;BME280;36598;46.054;11.130;2023-04-02T13:33:12;98500.13;;;19.02;29.79
50636;BME280;36598;46.054;11.130;2023-04-02T13:35:38;98501.81;;;18.94;29.65
50636;BME280;36598;46.054;11.130;2023-04-02T13:38:03;98501.66;;;19.04;29.81
50636;BME280;36598;46.054;11.130;2023-04-02T13:40:30;98500.34;;;19.19;29.83
50636;BME280;36598;46.054;11.130;2023-04-02T13:42:56;98500.31;;;19.40;29.76
50636;BME280;36598;46.054;11.130;2023-04-02T13:45:29;98502.09;;;19.17;29.81
50636;BME280;36598;46.054;11.130;2023-04-02T13:47:54;98501.44;;;18.87;29.31
50636;BME280;36598;46.054;11.130;2023-04-02T13:50:25;98498.81;;;18.98;28.43
50636;BME280;36598;46.054;11.130;2023-04-02T13:52:51;98496.47;;;18.61;27.83
50636;BME280;36598;46.054;11.130;2023-04-02T13:55:17;98497.72;;;18.60;27.74
50636;BME280;36598;46.054;11.130;2023-04-02T13:57:43;98497.47;;;19.14;27.70
50636;BME280;36598;46.054;11.130;2023-04-02T14:00:08;98495.44;;;19.35;28.60
50636;BME280;36598;46.054;11.130;2023-04-02T14:02:34;98494.59;;;19.08;29.17
50636;BME280;36598;46.054;11.130;2023-04-02T14:12:58;98493.38;;;19.56;28.36
50636;BME280;36598;46.054;11.130;2023-04-02T14:15:46;98498.09;;;19.64;28.19
50636;BME280;36598;46.054;11.130;2023-04-02T14:23:36;98504.63;;;19.15;28.85
50636;BME280;36598;46.054;11.130;2023-04-02T14:26:20;98501.16;;;19.05;29.41
50636;BME280;36598;46.054;11.130;2023-04-02T14:43:49;98500.75;;;19.12;29.56
50636;BME280;36598;46.054;11.130;2023-04-02T14:46:17;98491.78;;;19.29;29.41
50636;BME280;36598;46.054;11.130;2023-04-02T14:49:02;98493.47;;;19.41;29.26
50636;BME280;36598;46.054;11.130;2023-04-02T14:51:41;98488.47;;;19.50;28.95
50636;BME280;36598;46.054;11.130;2023-04-02T14:56:59;98488.41;;;19.65;29.21
50636;BME280;36598;46.054;11.130;2023-04-02T15:02:03;98484.91;;;19.96;28.41
50636;BME280;36598;46.054;11.130;2023-04-02T15:04:37;98490.97;;;19.02;29.70
50636;BME280;36598;46.054;11.130;2023-04-02T15:07:10;98495.59;;;19.66;29.29
50636;BME280;36598;46.054;11.130;2023-04-02T15:09:43;98493.44;;;19.82;29.07
50636;BME280;36598;46.054;11.130;2023-04-02T15:12:23;98498.75;;;19.33;29.13
50636;BME280;36598;46.054;11.130;2023-04-02T15:14:52;98495.03;;;19.62;28.90
50636;BME280;36598;46.054;11.130;2023-04-02T15:17:19;98491.47;;;19.88;28.76
50636;BME280;36598;46.054;11.130;2023-04-02T15:19:45;98487.00;;;20.33;28.43
50636;BME280;36598;46.054;11.130;2023-04-02T15:30:17;98492.13;;;20.35;28.20
50636;BME280;36598;46.054;11.130;2023-04-02T15:32:44;98486.91;;;20.22;29.89
50636;BME280;36598;46.054;11.130;2023-04-02T15:38:03;98504.50;;;19.91;31.54
50636;BME280;36598;46.054;11.130;2023-04-02T15:48:14;98492.13;;;20.66;31.27
50636;BME280;36598;46.054;11.130;2023-04-02T15:51:30;98493.31;;;20.54;31.08
50636;BME280;36598;46.054;11.130;2023-04-02T15:56:19;98492.50;;;20.48;31.31
50636;BME280;36598;46.054;11.130;2023-04-02T15:58:53;98488.63;;;20.45;31.47
50636;BME280;36598;46.054;11.130;2023-04-02T16:06:28;98491.66;;;20.10;31.59
50636;BME280;36598;46.054;11.130;2023-04-02T16:11:40;98503.78;;;19.70;32.29
50636;BME280;36598;46.054;11.130;2023-04-02T16:14:17;98502.72;;;19.47;32.24
50636;BME280;36598;46.054;11.130;2023-04-02T16:16:45;98507.28;;;19.24;32.47
50636;BME280;36598;46.054;11.130;2023-04-02T16:21:38;98502.75;;;19.06;32.90
50636;BME280;36598;46.054;11.130;2023-04-02T16:24:10;98509.13;;;19.07;32.90
50636;BME280;36598;46.054;11.130;2023-04-02T16:29:33;98506.97;;;18.81;33.35
50636;BME280;36598;46.054;11.130;2023-04-02T16:34:51;98516.16;;;18.67;33.38
50636;BME280;36598;46.054;11.130;2023-04-02T16:37:35;98517.91;;;18.64;33.45
50636;BME280;36598;46.054;11.130;2023-04-02T16:40:09;98523.34;;;18.23;33.76
50636;BME280;36598;46.054;11.130;2023-04-02T16:50:13;98535.91;;;18.13;33.34
50636;BME280;36598;46.054;11.130;2023-04-02T16:58:21;98547.03;;;17.69;34.58
50636;BME280;36598;46.054;11.130;2023-04-02T17:06:41;98557.69;;;17.56;35.21
50636;BME280;36598;46.054;11.130;2023-04-02T17:09:17;98572.81;;;17.49;34.89
50636;BME280;36598;46.054;11.130;2023-04-02T17:11:48;98561.56;;;17.58;34.83
50636;BME280;36598;46.054;11.130;2023-04-02T17:16:49;98581.94;;;17.35;35.26
50636;BME280;36598;46.054;11.130;2023-04-02T17:19:15;98574.78;;;17.34;35.55
50636;BME280;36598;46.054;11.130;2023-04-02T17:21:45;98580.09;;;17.32;35.47
50636;BME280;36598;46.054;11.130;2023-04-02T17:24:20;98587.56;;;17.25;35.72
50636;BME280;36598;46.054;11.130;2023-04-02T17:26:49;98589.13;;;17.26;35.42
50636;BME280;36598;46.054;11.130;2023-04-02T17:29:19;98587.03;;;16.79;36.26
50636;BME280;36598;46.054;11.130;2023-04-02T17:31:45;98594.94;;;16.71;36.24
50636;BME280;36598;46.054;11.130;2023-04-02T17:34:13;98601.47;;;16.68;36.65
50636;BME280;36598;46.054;11.130;2023-04-02T17:39:14;98602.31;;;16.50;36.82
50636;BME280;36598;46.054;11.130;2023-04-02T17:41:51;98608.72;;;16.33;37.14
50636;BME280;36598;46.054;11.130;2023-04-02T17:47:00;98614.59;;;16.35;37.14
50636;BME280;36598;46.054;11.130;2023-04-02T17:52:00;98633.25;;;16.10;37.43
50636;BME280;36598;46.054;11.130;2023-04-02T18:02:40;98649.66;;;16.08;37.37
50636;BME280;36598;46.054;11.130;2023-04-02T18:05:30;98652.75;;;16.01;37.48
50636;BME280;36598;46.054;11.130;2023-04-02T18:11:08;98668.34;;;15.62;38.15
50636;BME280;36598;46.054;11.130;2023-04-02T18:13:35;98675.44;;;15.44;38.51
50636;BME280;36598;46.054;11.130;2023-04-02T18:18:34;98677.81;;;15.24;39.43
50636;BME280;36598;46.054;11.130;2023-04-02T18:21:06;98688.63;;;15.13;39.84
50636;BME280;36598;46.054;11.130;2023-04-02T18:29:06;98703.09;;;14.98;39.84
50636;BME280;36598;46.054;11.130;2023-04-02T18:42:02;98723.81;;;14.88;40.45
50636;BME280;36598;46.054;11.130;2023-04-02T18:44:35;98723.28;;;14.81;40.25
50636;BME280;36598;46.054;11.130;2023-04-02T18:47:21;98729.78;;;14.43;41.41
50636;BME280;36598;46.054;11.130;2023-04-02T18:49:50;98744.97;;;14.64;40.69
50636;BME280;36598;46.054;11.130;2023-04-02T18:52:16;98738.38;;;14.70;40.93
50636;BME280;36598;46.054;11.130;2023-04-02T18:54:50;98736.41;;;14.36;41.15
50636;BME280;36598;46.054;11.130;2023-04-02T18:57:37;98744.38;;;14.47;40.62
50636;BME280;36598;46.054;11.130;2023-04-02T19:00:04;98754.06;;;14.42;40.81
50636;BME280;36598;46.054;11.130;2023-04-02T19:02:41;98756.44;;;14.44;40.65
50636;BME280;36598;46.054;11.130;2023-04-02T19:07:53;98761.03;;;14.25;40.13
50636;BME280;36598;46.054;11.130;2023-04-02T19:10:29;98780.34;;;14.41;40.44
50636;BME280;36598;46.054;11.130;2023-04-02T19:12:55;98783.84;;;14.33;40.78
50636;BME280;36598;46.054;11.130;2023-04-02T19:15:20;98788.03;;;14.02;41.25
50636;BME280;36598;46.054;11.130;2023-04-02T19:18:27;98792.13;;;14.11;40.99
50636;BME280;36598;46.054;11.130;2023-04-02T19:20:49;98801.28;;;13.98;41.37
50636;BME280;36598;46.054;11.130;2023-04-02T19:23:25;98809.13;;;14.25;40.71
50636;BME280;36598;46.054;11.130;2023-04-02T19:33:55;98836.66;;;13.85;42.56
50636;BME280;36598;46.054;11.130;2023-04-02T19:36:43;98838.22;;;13.86;42.07
50636;BME280;36598;46.054;11.130;2023-04-02T19:39:53;98836.56;;;13.89;42.13
50636;BME280;36598;46.054;11.130;2023-04-02T19:42:05;98845.91;;;13.69;42.60
50636;BME280;36598;46.054;11.130;2023-04-02T19:44:36;98851.81;;;13.97;42.39
50636;BME280;36598;46.054;11.130;2023-04-02T19:47:04;98847.69;;;13.76;42.35
50636;BME280;36598;46.054;11.130;2023-04-02T19:49:31;98846.66;;;13.83;41.93
50636;BME280;36598;46.054;11.130;2023-04-02T19:51:57;98850.00;;;13.52;41.54
50636;BME280;36598;46.054;11.130;2023-04-02T19:54:22;98849.31;;;13.48;42.66
50636;BME280;36598;46.054;11.130;2023-04-02T19:56:48;98851.34;;;13.86;42.31
50636;BME280;36598;46.054;11.130;2023-04-02T19:59:13;98856.59;;;13.96;41.79
50636;BME280;36598;46.054;11.130;2023-04-02T20:01:38;98859.13;;;13.65;42.72
50636;BME280;36598;46.054;11.130;2023-04-02T20:04:04;98860.25;;;13.68;42.35
50636;BME280;36598;46.054;11.130;2023-04-02T20:06:30;98858.03;;;13.75;42.80
50636;BME280;36598;46.054;11.130;2023-04-02T20:08:58;98871.03;;;13.91;42.51
50636;BME280;36598;46.054;11.130;2023-04-02T20:11:25;98866.03;;;13.99;42.34
50636;BME280;36598;46.054;11.130;2023-04-02T20:13:50;98866.56;;;13.56;42.70
50636;BME280;36598;46.054;11.130;2023-04-02T20:16:16;98868.34;;;13.49;43.02
50636;BME280;36598;46.054;11.130;2023-04-02T20:18:42;98866.38;;;13.63;43.26
50636;BME280;36598;46.054;11.130;2023-04-02T20:21:07;98872.50;;;13.70;43.17
50636;BME280;36598;46.054;11.130;2023-04-02T20:23:33;98871.59;;;13.73;42.95
50636;BME280;36598;46.054;11.130;2023-04-02T20:25:59;98885.69;;;13.12;43.47
50636;BME280;36598;46.054;11.130;2023-04-02T20:28:25;98882.91;;;13.12;43.28
50636;BME280;36598;46.054;11.130;2023-04-02T20:30:51;98876.81;;;13.59;42.59
50636;BME280;36598;46.054;11.130;2023-04-02T20:33:17;98881.63;;;13.71;42.43
50636;BME280;36598;46.054;11.130;2023-04-02T20:35:43;98892.25;;;13.47;42.35
50636;BME280;36598;46.054;11.130;2023-04-02T20:38:09;98882.13;;;13.66;43.04
50636;BME280;36598;46.054;11.130;2023-04-02T20:40:37;98889.97;;;13.71;42.94
50636;BME280;36598;46.054;11.130;2023-04-02T20:43:02;98890.84;;;13.68;42.46
50636;BME280;36598;46.054;11.130;2023-04-02T20:45:28;98888.91;;;13.52;42.21
50636;BME280;36598;46.054;11.130;2023-04-02T20:47:54;98891.59;;;13.68;42.48
50636;BME280;36598;46.054;11.130;2023-04-02T20:50:20;98896.50;;;13.64;42.72
50636;BME280;36598;46.054;11.130;2023-04-02T20:52:45;98899.47;;;13.15;42.49
50636;BME280;36598;46.054;11.130;2023-04-02T20:55:11;98901.34;;;13.18;42.88
50636;BME280;36598;46.054;11.130;2023-04-02T20:57:36;98898.56;;;13.35;42.37
50636;BME280;36598;46.054;11.130;2023-04-02T21:00:02;98899.97;;;13.26;42.60
50636;BME280;36598;46.054;11.130;2023-04-02T21:02:29;98899.03;;;13.17;42.27
50636;BME280;36598;46.054;11.130;2023-04-02T21:04:55;98903.78;;;13.33;41.27
50636;BME280;36598;46.054;11.130;2023-04-02T21:07:20;98905.72;;;13.19;41.85
50636;BME280;36598;46.054;11.130;2023-04-02T21:09:45;98908.19;;;13.01;42.45
50636;BME280;36598;46.054;11.130;2023-04-02T21:12:11;98906.34;;;12.82;43.34